createdAt,value
2022-12-19T00:01:09.755Z,103077.47
2022-12-19T00:03:38.092Z,103072.19
2022-12-19T00:06:07.285Z,103059.50
2022-12-19T00:08:37.597Z,103060.38
2022-12-19T00:11:14.366Z,103072.28
2022-12-19T00:13:44.076Z,103067.00
2022-12-19T00:16:21.465Z,103079.19
2022-12-19T00:18:54.892Z,103079.88
2022-12-19T00:21:26.552Z,103081.16
2022-12-19T00:23:58.952Z,103075.16
2022-12-19T00:26:30.334Z,103080.06
2022-12-19T00:29:01.799Z,103076.97
2022-12-19T00:31:33.512Z,103079.28
2022-12-19T00:34:02.818Z,103066.44
2022-12-19T00:36:35.514Z,103078.34
2022-12-19T00:39:08.005Z,103083.75
2022-12-19T00:41:41.512Z,103081.59
2022-12-19T00:44:16.205Z,103079.16
2022-12-19T00:46:51.504Z,103077.25
2022-12-19T00:49:21.448Z,103070.16
2022-12-19T00:51:52.080Z,103075.66
2022-12-19T00:54:21.313Z,103080.72
2022-12-19T00:56:50.051Z,103089.72
2022-12-19T00:59:23.961Z,103099.28
2022-12-19T01:01:56.783Z,103091.28
2022-12-19T01:04:28.587Z,103077.56
2022-12-19T01:07:02.633Z,103086.56
2022-12-19T01:09:33.709Z,103071.88
2022-12-19T01:12:24.198Z,103085.31
2022-12-19T01:14:59.475Z,103086.56
2022-12-19T01:17:43.632Z,103082.00
2022-12-19T01:20:16.615Z,103081.91
2022-12-19T01:22:47.516Z,103084.59
2022-12-19T01:25:16.168Z,103088.56
2022-12-19T01:27:43.983Z,103086.34
2022-12-19T01:30:13.536Z,103085.31
2022-12-19T01:32:42.016Z,103084.66
2022-12-19T01:35:14.625Z,103084.28
2022-12-19T01:37:52.166Z,103085.56
2022-12-19T01:40:30.165Z,103088.19
2022-12-19T01:42:59.047Z,103083.66
2022-12-19T01:45:34.856Z,103089.38
2022-12-19T01:48:13.037Z,103087.28
2022-12-19T01:51:01.747Z,103081.69
2022-12-19T01:53:57.191Z,103088.66
2022-12-19T01:56:30.091Z,103099.41
2022-12-19T01:59:06.852Z,103096.31
2022-12-19T02:01:39.657Z,103098.00
2022-12-19T02:04:21.489Z,103103.91
2022-12-19T02:06:51.952Z,103103.47
2022-12-19T02:09:27.047Z,103107.78
2022-12-19T02:11:55.165Z,103105.84
2022-12-19T02:14:24.651Z,103117.22
2022-12-19T02:17:32.509Z,103117.78
2022-12-19T02:20:34.659Z,103118.50
2022-12-19T02:23:14.911Z,103113.41
2022-12-19T02:26:20.394Z,103124.16
2022-12-19T02:29:18.526Z,103126.97
2022-12-19T02:32:07.917Z,103132.63
2022-12-19T02:34:44.253Z,103121.88
2022-12-19T02:37:30.807Z,103129.31
2022-12-19T02:40:22.057Z,103122.44
2022-12-19T02:42:58.175Z,103118.91
2022-12-19T02:45:32.458Z,103119.25
2022-12-19T02:48:08.617Z,103119.63
2022-12-19T02:50:44.101Z,103131.75
2022-12-19T02:53:16.224Z,103135.78
2022-12-19T02:56:16.068Z,103131.31
2022-12-19T02:58:58.879Z,103135.06
2022-12-19T03:01:53.008Z,103126.25
2022-12-19T03:04:53.909Z,103130.78
2022-12-19T03:07:47.653Z,103129.72
2022-12-19T03:10:51.083Z,103146.72
2022-12-19T03:13:32.875Z,103158.13
2022-12-19T03:16:04.208Z,103153.09
2022-12-19T03:18:33.485Z,103146.13
2022-12-19T03:21:23.505Z,103152.41
2022-12-19T03:23:55.268Z,103160.94
2022-12-19T03:26:29.542Z,103153.19
2022-12-19T03:29:05.927Z,103154.69
2022-12-19T03:31:38.750Z,103161.19
2022-12-19T03:34:15.834Z,103167.72
2022-12-19T03:36:49.954Z,103178.34
2022-12-19T03:39:20.247Z,103172.84
2022-12-19T03:42:10.518Z,103177.81
2022-12-19T03:44:42.735Z,103196.78
2022-12-19T03:47:17.935Z,103213.13
2022-12-19T03:49:47.009Z,103208.19
2022-12-19T03:52:37.307Z,103203.34
2022-12-19T03:55:20.046Z,103216.16
2022-12-19T03:58:04.427Z,103211.44
2022-12-19T04:00:37.234Z,103221.59
2022-12-19T04:03:06.951Z,103226.34
2022-12-19T04:05:39.017Z,103223.00
2022-12-19T04:08:09.190Z,103222.47
2022-12-19T04:10:56.066Z,103226.47
2022-12-19T04:13:33.729Z,103230.16
2022-12-19T04:16:24.303Z,103242.31
2022-12-19T04:19:00.040Z,103242.66
2022-12-19T04:21:35.641Z,103243.94
2022-12-19T04:24:14.881Z,103237.91
2022-12-19T04:26:48.045Z,103245.13
2022-12-19T04:29:17.134Z,103256.19
2022-12-19T04:31:46.154Z,103257.75
2022-12-19T04:34:21.126Z,103274.50
2022-12-19T04:36:51.141Z,103278.59
2022-12-19T04:39:20.903Z,103271.41
2022-12-19T07:33:23.036Z,103481.66
2022-12-19T07:35:55.701Z,103480.84
2022-12-19T07:38:23.868Z,103478.56
2022-12-19T07:40:53.723Z,103484.31
2022-12-19T07:43:26.032Z,103480.72
2022-12-19T07:45:57.204Z,103485.28
2022-12-19T07:48:25.818Z,103485.38
2022-12-19T07:50:53.581Z,103499.91
2022-12-19T07:53:25.947Z,103505.75
2022-12-19T07:55:57.633Z,103502.47
2022-12-19T07:58:26.330Z,103505.97
2022-12-19T08:00:59.569Z,103504.84
2022-12-19T08:03:29.593Z,103512.41
2022-12-19T08:06:08.280Z,103519.03
2022-12-19T08:08:41.763Z,103529.69
2022-12-19T08:11:18.251Z,103525.13
2022-12-19T08:13:48.989Z,103527.31
2022-12-19T08:16:17.686Z,103534.47
2022-12-19T08:18:48.540Z,103523.59
2022-12-19T08:21:16.379Z,103523.75
2022-12-19T08:23:48.598Z,103523.31
2022-12-19T08:26:26.343Z,103536.13
2022-12-19T08:28:57.593Z,103526.59
2022-12-19T08:31:27.738Z,103532.22
2022-12-19T08:34:05.372Z,103538.41
2022-12-19T08:36:34.118Z,103543.31
2022-12-19T08:39:06.434Z,103536.66
2022-12-19T08:41:35.263Z,103544.19
2022-12-19T08:44:06.832Z,103526.72
2022-12-19T08:46:38.448Z,103538.91
2022-12-19T08:49:09.785Z,103529.19
2022-12-19T08:51:39.901Z,103534.84
2022-12-19T08:54:15.475Z,103540.88
2022-12-19T08:56:46.307Z,103534.44
2022-12-19T08:59:25.002Z,103537.53
2022-12-19T09:02:02.253Z,103542.19
2022-12-19T09:05:58.654Z,103543.22
2022-12-19T09:07:26.984Z,103552.16
2022-12-19T09:10:03.184Z,103548.16
2022-12-19T09:12:36.186Z,103555.56
2022-12-19T09:15:05.403Z,103560.09
2022-12-19T09:17:33.767Z,103560.78
2022-12-19T09:20:05.609Z,103549.72
2022-12-19T09:22:34.764Z,103548.97
2022-12-19T09:25:02.418Z,103546.72
2022-12-19T09:27:38.451Z,103550.06
2022-12-19T09:30:21.047Z,103544.88
2022-12-19T09:32:49.848Z,103528.75
2022-12-19T09:35:18.464Z,103535.28
2022-12-19T09:37:49.051Z,103528.44
2022-12-19T09:40:21.488Z,103535.13
2022-12-19T09:43:21.637Z,103527.88
2022-12-19T09:49:33.087Z,103543.69
2022-12-19T09:52:24.070Z,103540.31
2022-12-19T09:59:01.515Z,103538.00
2022-12-19T10:01:47.934Z,103529.66
2022-12-19T10:04:24.604Z,103519.34
2022-12-19T10:07:21.141Z,103523.97
2022-12-19T10:12:20.225Z,103520.88
2022-12-19T10:13:22.028Z,103519.34
2022-12-19T10:16:05.160Z,103517.97
2022-12-19T10:19:03.930Z,103518.47
2022-12-19T10:22:18.902Z,103518.38
2022-12-19T10:25:15.688Z,103516.03
2022-12-19T10:31:20.635Z,103507.66
2022-12-19T10:34:19.464Z,103508.13
2022-12-19T10:37:26.945Z,103522.66
2022-12-19T10:40:37.526Z,103523.09
2022-12-19T10:43:44.779Z,103524.66
2022-12-19T10:46:25.438Z,103527.31
2022-12-19T10:48:54.235Z,103532.50
2022-12-19T10:51:28.179Z,103538.81
2022-12-19T10:53:59.818Z,103541.78
2022-12-19T10:56:37.110Z,103543.16
2022-12-19T10:59:17.855Z,103536.25
2022-12-19T11:01:47.211Z,103544.38
2022-12-19T11:04:39.521Z,103549.91
2022-12-19T11:07:28.938Z,103541.66
2022-12-19T11:10:36.792Z,103538.38
2022-12-19T11:17:49.612Z,103538.00
2022-12-19T11:17:53.279Z,103542.78
2022-12-19T11:29:16.392Z,103541.16
2022-12-19T11:29:54.791Z,103541.22
2022-12-19T11:30:05.172Z,103550.22
2022-12-19T11:30:25.965Z,103543.59
2022-12-19T11:31:27.895Z,103541.44
2022-12-19T11:33:21.844Z,103550.00
2022-12-19T11:35:58.229Z,103542.50
2022-12-19T11:38:53.188Z,103554.06
2022-12-19T11:41:34.788Z,103561.00
2022-12-19T11:44:39.278Z,103564.31
2022-12-19T11:47:35.820Z,103564.38
2022-12-19T11:50:11.901Z,103577.59
2022-12-19T11:53:03.947Z,103573.84
2022-12-19T11:56:16.546Z,103575.81
2022-12-19T11:58:50.685Z,103581.13
2022-12-19T12:01:42.111Z,103590.75
2022-12-19T12:04:34.880Z,103592.69
2022-12-19T12:07:15.267Z,103590.16
2022-12-19T12:12:02.396Z,103596.69
2022-12-19T12:21:14.280Z,103598.34
2022-12-19T12:30:59.851Z,103593.47
2022-12-19T12:31:07.593Z,103594.44
2022-12-19T12:31:44.720Z,103603.22
2022-12-19T12:31:49.679Z,103597.75
2022-12-19T12:31:54.265Z,103598.16
2022-12-19T12:35:54.548Z,103606.38
2022-12-19T12:39:28.204Z,103606.94
2022-12-19T12:42:33.949Z,103627.84
2022-12-19T12:45:19.713Z,103619.34
2022-12-19T12:47:53.758Z,103625.56
2022-12-19T12:50:25.519Z,103627.78
2022-12-19T12:53:02.958Z,103617.34
2022-12-19T16:52:13.823Z,103768.66
2022-12-19T16:54:46.626Z,103762.03
2022-12-19T16:57:22.448Z,103757.25
2022-12-19T16:59:52.035Z,103754.19
2022-12-19T17:03:01.745Z,103764.81
2022-12-19T17:05:43.155Z,103764.66
2022-12-19T17:08:15.505Z,103758.53
2022-12-19T17:10:49.414Z,103759.47
2022-12-19T17:13:23.605Z,103775.38
2022-12-19T17:15:56.799Z,103765.53
2022-12-19T17:18:40.497Z,103765.59
2022-12-19T17:21:19.113Z,103759.34
2022-12-19T17:23:50.325Z,103759.28
2022-12-19T17:26:19.394Z,103759.41
2022-12-19T17:28:48.669Z,103762.78
2022-12-19T17:31:32.169Z,103762.81
2022-12-19T17:34:33.968Z,103768.19
2022-12-19T17:37:16.088Z,103758.47
2022-12-19T17:45:14.217Z,103758.03
2022-12-19T17:47:44.471Z,103756.19
2022-12-19T17:50:28.895Z,103756.78
2022-12-19T17:53:02.605Z,103746.66
2022-12-19T17:55:31.908Z,103743.47
2022-12-19T17:58:02.951Z,103743.19
2022-12-19T18:00:41.545Z,103743.88
2022-12-19T18:03:27.216Z,103744.69
2022-12-19T18:05:59.231Z,103746.69
2022-12-19T18:08:33.435Z,103740.53
2022-12-19T18:11:20.459Z,103740.22
2022-12-19T18:13:48.765Z,103748.41
2022-12-19T18:16:22.921Z,103748.53
2022-12-19T18:19:00.486Z,103747.22
2022-12-19T18:21:40.537Z,103755.03
2022-12-19T18:24:14.987Z,103761.69
2022-12-19T18:26:55.380Z,103758.03
2022-12-19T18:29:23.446Z,103761.69
2022-12-19T18:32:03.091Z,103755.66
2022-12-19T18:34:34.118Z,103757.44
2022-12-19T18:37:14.917Z,103752.13
2022-12-19T18:39:46.799Z,103759.97
2022-12-19T18:42:22.426Z,103757.59
2022-12-19T18:45:08.832Z,103757.31
2022-12-19T18:47:38.862Z,103759.34
2022-12-19T18:50:55.958Z,103765.56
2022-12-19T18:53:39.558Z,103767.16
2022-12-19T18:59:20.839Z,103778.03
2022-12-19T19:02:05.180Z,103775.09
2022-12-19T19:04:35.976Z,103777.16
2022-12-19T19:07:21.412Z,103777.81
2022-12-19T19:09:50.949Z,103785.69
2022-12-19T19:15:14.071Z,103783.06
2022-12-19T19:17:59.126Z,103781.56
2022-12-19T19:20:58.863Z,103771.84
2022-12-19T19:23:52.280Z,103785.09
2022-12-19T19:26:31.251Z,103767.47
2022-12-19T19:31:52.549Z,103762.91
2022-12-19T19:34:33.862Z,103769.25
2022-12-19T19:37:17.775Z,103777.03
2022-12-19T19:40:04.407Z,103775.28
2022-12-19T19:42:39.485Z,103784.03
2022-12-19T19:45:31.990Z,103783.47
2022-12-19T19:48:12.513Z,103788.66
2022-12-19T19:50:44.562Z,103789.47
2022-12-19T19:53:25.090Z,103795.56
2022-12-19T19:56:09.463Z,103783.16
2022-12-19T21:10:27.029Z,103800.16
2022-12-19T21:12:58.631Z,103798.22
2022-12-19T21:15:29.003Z,103805.38
2022-12-19T21:17:58.561Z,103805.25
2022-12-19T21:20:34.031Z,103798.19
2022-12-19T21:23:14.540Z,103802.31
2022-12-19T21:25:46.524Z,103803.97
2022-12-19T21:28:18.519Z,103810.47
2022-12-19T21:31:05.861Z,103799.75
2022-12-19T21:33:37.705Z,103803.19
2022-12-19T21:36:19.683Z,103804.75
2022-12-19T21:38:52.644Z,103806.38
2022-12-19T21:41:24.246Z,103803.06
2022-12-19T21:43:55.284Z,103814.81
2022-12-19T21:46:35.615Z,103806.25
2022-12-19T21:49:04.493Z,103810.63
2022-12-19T21:51:42.851Z,103809.19
2022-12-19T21:54:12.526Z,103806.41
2022-12-19T21:56:41.747Z,103808.84
2022-12-19T21:59:14.446Z,103806.25
2022-12-19T22:01:45.941Z,103807.91
2022-12-19T22:04:24.511Z,103805.72
2022-12-19T22:06:53.543Z,103804.00
2022-12-19T22:09:23.501Z,103802.59
2022-12-19T22:11:57.780Z,103802.63
2022-12-19T22:14:26.498Z,103795.66
2022-12-19T22:16:55.119Z,103795.69
2022-12-19T22:19:25.868Z,103794.53
2022-12-19T22:21:54.971Z,103782.72
2022-12-19T22:24:25.053Z,103790.31
2022-12-19T22:26:53.605Z,103790.50
2022-12-19T22:29:22.956Z,103786.22
2022-12-19T22:31:51.673Z,103795.91
2022-12-19T22:34:21.684Z,103787.31
2022-12-19T22:36:52.165Z,103789.66
2022-12-19T22:39:23.235Z,103787.06
2022-12-19T22:41:51.514Z,103790.78
2022-12-19T22:44:22.195Z,103780.31
2022-12-19T22:46:51.100Z,103783.84
2022-12-19T22:49:20.555Z,103772.56
2022-12-19T22:51:50.748Z,103764.66
2022-12-19T22:54:20.048Z,103773.34
2022-12-19T22:56:54.391Z,103762.16
2022-12-19T22:59:23.589Z,103758.53
2022-12-19T23:01:51.550Z,103764.66
2022-12-19T23:04:21.033Z,103762.97
2022-12-19T23:06:49.752Z,103774.41
2022-12-19T23:09:21.153Z,103776.16
2022-12-19T23:11:52.457Z,103767.47
2022-12-19T23:14:21.991Z,103766.25
2022-12-19T23:16:53.489Z,103768.13
2022-12-19T23:19:24.344Z,103775.28
2022-12-19T23:21:53.627Z,103784.69
2022-12-19T23:24:22.342Z,103787.44
2022-12-19T23:26:51.200Z,103791.09
2022-12-19T23:29:22.305Z,103783.97
2022-12-19T23:31:54.624Z,103791.03
2022-12-19T23:34:24.866Z,103787.69
2022-12-19T23:37:11.277Z,103780.81
2022-12-19T23:39:45.018Z,103782.41
2022-12-19T23:42:14.212Z,103791.28
2022-12-19T23:44:42.769Z,103791.19
2022-12-19T23:47:14.022Z,103792.28
2022-12-19T23:49:45.811Z,103783.47
2022-12-19T23:52:16.612Z,103790.41
2022-12-19T23:54:46.840Z,103792.09
2022-12-19T23:57:18.229Z,103787.72
2022-12-19T23:59:46.407Z,103782.56
